< Cyclone 199703 1997 Season Cyclone 199705 >
Cyclone 199704 (OPHELIA)
General InformationTrack Information on Google MapsDetailed Wind InformationList of All Images || ResourceGoogle EarthGE AnimationAtom FeedGeoJSON
Detalied Best Track (Time Zone = UTC)
Year Month Day Hour Lat. Long. Pressure (hPa) Wind (kt) Class Image Chart
1996 12 13 10 -9.0 107.9 1002 23 2 Image --
1996 12 14 04 -9.0 108.0 1000 27 2 Image --
1996 12 14 07 -9.2 108.0 1000 27 2 Image --
1996 12 14 10 -9.5 108.0 998 29 2 Image --
1996 12 14 16 -9.7 108.1 998 29 2 Image --
1996 12 14 22 -9.7 108.3 998 29 2 Image --
1996 12 15 01 -9.7 108.4 995 35 3 Image --
1996 12 15 04 -10.0 108.6 995 35 3 Image --
1996 12 15 07 -10.1 108.6 990 41 3 Image --
1996 12 15 10 -10.3 108.7 990 41 3 Image --
1996 12 15 16 -10.8 109.2 985 47 3 Image --
1996 12 15 22 -11.2 110.0 985 47 3 Image --
1996 12 16 01 -11.5 110.4 980 54 4 Image --
1996 12 16 04 -11.9 110.8 980 54 4 Image --
1996 12 16 07 -12.2 111.2 980 54 4 Image --
1996 12 16 10 -12.5 111.7 985 47 3 Image --
1996 12 16 16 -12.9 112.6 985 47 3 Image --
1996 12 16 22 -13.2 113.6 990 41 3 Image --
1996 12 17 04 -13.5 114.6 990 41 3 Image --
1996 12 17 07 -13.6 115.1 990 41 3 Image --
1996 12 17 10 -13.6 115.5 995 35 3 Image --
1996 12 17 16 -13.7 116.1 998 29 2 Image --
1996 12 17 22 -13.7 116.6 1000 27 2 Image --
1996 12 18 04 -13.7 117.1 1000 27 2 Image --
1996 12 18 07 -13.7 117.4 1000 27 2 Image --
1996 12 18 10 -14.0 117.6 1000 27 2 Image --
1996 12 18 16 -14.4 117.5 1000 27 2 Image --
1996 12 18 22 -14.8 117.4 1000 27 2 Image --
1996 12 19 04 -15.2 117.2 1000 27 2 Image --
1996 12 19 10 -15.5 116.8 1000 27 2 Image --
< Cyclone 199703 1997 Season Cyclone 199705 >

Help